Time;durP1;ratioP1;P1;durP2;ratioP2;P2;SDS_P1;SDS_P2;PMS_P1;PMS_P2;Temp;Humidity;BMP_temperature;BMP_pressure;BME280_temperature;BME280_humidity;BME280_pressure;Samples;Min_cycle;Max_cycle;Signal;HPM_P1;HPM_P2
2022/05/10 00:01:56;;;;;;;27.00;13.98;;;;;;;;;;5042619;28;20060;-68
2022/05/10 00:04:28;;;;;;;30.73;15.00;;;;;;;;;;5036263;28;20377;-68
2022/05/10 00:07:01;;;;;;;26.67;13.27;;;;;;;;;;5036903;28;20432;-68
2022/05/10 00:09:29;;;;;;;31.38;13.80;;;;;;;;;;5034348;28;20453;-68
2022/05/10 00:12:02;;;;;;;25.58;13.43;;;;;;;;;;5036545;28;20057;-68
2022/05/10 00:14:35;;;;;;;29.60;14.43;;;;;;;;;;5039260;28;20041;-68
2022/05/10 00:17:01;;;;;;;27.05;13.35;;;;;;;;;;5036462;28;20060;-68
2022/05/10 00:19:32;;;;;;;27.08;13.05;;;;;;;;;;5044618;28;20049;-68
2022/05/10 00:22:05;;;;;;;22.33;12.05;;;;;;;;;;5030898;28;20042;-68
2022/05/10 00:24:31;;;;;;;24.45;10.85;;;;;;;;;;5037077;28;20446;-68
2022/05/10 00:27:03;;;;;;;20.80;10.98;;;;;;;;;;5036252;28;20033;-68
2022/05/10 00:29:36;;;;;;;24.88;10.57;;;;;;;;;;5041576;28;20092;-68
2022/05/10 00:32:01;;;;;;;21.80;10.48;;;;;;;;;;5035517;28;20040;-68
2022/05/10 00:34:35;;;;;;;18.38;10.15;;;;;;;;;;5035404;28;20021;-68
2022/05/10 00:37:08;;;;;;;19.05;8.85;;;;;;;;;;5036091;28;20037;-68
2022/05/10 00:39:33;;;;;;;19.30;8.73;;;;;;;;;;5051629;28;20041;-68
2022/05/10 00:42:13;;;;;;;20.05;8.68;;;;;;;;;;5035949;28;20044;-68
2022/05/10 00:44:50;;;;;;;17.77;8.93;;;;;;;;;;5052849;28;20030;-68
2022/05/10 00:47:30;;;;;;;17.90;8.48;;;;;;;;;;5037499;28;20512;-68
2022/05/10 00:50:16;;;;;;;16.08;8.38;;;;;;;;;;5036032;28;20098;-68
2022/05/10 00:52:53;;;;;;;20.30;8.10;;;;;;;;;;5064634;28;20608;-68
2022/05/10 00:55:39;;;;;;;20.20;9.00;;;;;;;;;;5030461;28;20038;-68
2022/05/10 00:58:37;;;;;;;17.30;8.95;;;;;;;;;;5041618;28;20037;-68
2022/05/10 01:01:14;;;;;;;18.13;9.15;;;;;;;;;;5042798;28;20049;-68
2022/05/10 01:03:57;;;;;;;21.30;9.40;;;;;;;;;;5059390;28;20060;-68
2022/05/10 01:06:46;;;;;;;20.73;9.45;;;;;;;;;;5027853;28;20116;-68
2022/05/10 01:09:33;;;;;;;20.55;9.75;;;;;;;;;;5058724;28;20478;-68
2022/05/10 01:12:19;;;;;;;18.98;8.55;;;;;;;;;;5037206;28;20052;-68
2022/05/10 01:15:10;;;;;;;15.93;8.45;;;;;;;;;;5052559;28;20044;-68
2022/05/10 01:17:44;;;;;;;15.35;8.43;;;;;;;;;;5046451;28;20041;-68
2022/05/10 01:20:10;;;;;;;;;;;;;;;;;;5035870;28;20038;-68
2022/05/10 01:23:25;;;;;;;15.77;7.80;;;;;;;;;;5035185;28;20309;-68
2022/05/10 01:26:23;;;;;;;16.02;7.28;;;;;;;;;;5028330;28;20542;-68
2022/05/10 01:29:05;;;;;;;22.88;8.65;;;;;;;;;;5033057;28;20056;-68
2022/05/10 01:31:34;;;;;;;21.13;7.70;;;;;;;;;;5052466;28;20381;-68
2022/05/10 01:34:15;;;;;;;14.27;6.50;;;;;;;;;;5063980;28;20072;-68
2022/05/10 01:36:52;;;;;;;14.13;6.53;;;;;;;;;;5035074;28;20041;-68
2022/05/10 01:39:35;;;;;;;12.73;6.70;;;;;;;;;;5035269;28;20041;-68
2022/05/10 01:42:10;;;;;;;17.42;7.85;;;;;;;;;;5036012;28;20113;-68
2022/05/10 01:44:52;;;;;;;17.95;7.53;;;;;;;;;;5026798;28;20376;-68
2022/05/10 01:47:23;;;;;;;16.52;7.45;;;;;;;;;;5036143;28;20037;-68
2022/05/10 01:50:14;;;;;;;12.63;7.35;;;;;;;;;;5066955;28;20105;-68
2022/05/10 01:53:11;;;;;;;11.23;7.28;;;;;;;;;;5045760;28;20144;-68
2022/05/10 01:55:53;;;;;;;13.18;7.43;;;;;;;;;;5029860;28;20045;-68
2022/05/10 01:58:31;;;;;;;14.20;6.72;;;;;;;;;;5034616;28;20029;-68
2022/05/10 02:01:15;;;;;;;14.50;6.75;;;;;;;;;;5052554;28;20496;-68
2022/05/10 02:03:58;;;;;;;16.02;6.80;;;;;;;;;;5033190;28;20033;-68
2022/05/10 02:06:59;;;;;;;14.23;6.88;;;;;;;;;;5028350;28;20037;-68
2022/05/10 02:09:43;;;;;;;11.20;5.97;;;;;;;;;;5034223;28;20037;-68
2022/05/10 02:12:31;;;;;;;;;;;;;;;;;;5065169;28;20056;-68
2022/05/10 02:14:58;;;;;;;7.80;4.90;;;;;;;;;;5043398;28;20324;-68
2022/05/10 02:17:42;;;;;;;7.80;4.80;;;;;;;;;;5036133;28;20034;-68
2022/05/10 02:20:13;;;;;;;8.45;4.05;;;;;;;;;;5034210;28;20080;-68
2022/05/10 02:23:11;;;;;;;7.68;4.07;;;;;;;;;;5035282;28;20064;-68
2022/05/10 02:25:44;;;;;;;9.52;4.93;;;;;;;;;;5064327;28;20041;-68
2022/05/10 02:28:28;;;;;;;10.20;4.72;;;;;;;;;;5039039;28;20029;-68
2022/05/10 02:30:57;;;;;;;14.38;5.43;;;;;;;;;;5033108;28;20087;-68
2022/05/10 02:33:36;;;;;;;12.10;7.05;;;;;;;;;;5046015;28;20044;-68
2022/05/10 02:36:02;;;;;;;15.32;7.55;;;;;;;;;;5033668;28;20429;-68
2022/05/10 02:38:43;;;;;;;14.00;8.00;;;;;;;;;;5026494;28;20086;-68
2022/05/10 02:41:14;;;;;;;13.95;7.13;;;;;;;;;;5064103;28;20061;-68
2022/05/10 02:44:02;;;;;;;16.35;7.40;;;;;;;;;;5034129;28;20029;-68
2022/05/10 02:46:28;;;;;;;16.30;7.10;;;;;;;;;;5048419;28;20099;-68
2022/05/10 02:49:00;;;;;;;16.05;7.95;;;;;;;;;;5033897;28;20029;-68
2022/05/10 02:51:31;;;;;;;14.27;8.10;;;;;;;;;;5031858;28;20041;-68
2022/05/10 02:53:57;;;;;;;13.05;6.85;;;;;;;;;;5057048;28;20033;-68
2022/05/10 02:56:29;;;;;;;16.38;7.45;;;;;;;;;;5032145;28;20493;-68
2022/05/10 02:59:17;;;;;;;17.75;8.00;;;;;;;;;;5040557;28;20044;-68
2022/05/10 03:01:56;;;;;;;22.92;7.90;;;;;;;;;;5047046;28;20476;-68
2022/05/10 03:04:28;;;;;;;18.13;8.93;;;;;;;;;;5035569;28;20041;-68
2022/05/10 03:07:04;;;;;;;14.18;7.53;;;;;;;;;;5034550;28;20057;-68
2022/05/10 03:09:35;;;;;;;14.80;8.00;;;;;;;;;;5065488;28;20029;-68
2022/05/10 03:12:08;;;;;;;15.82;7.88;;;;;;;;;;5052363;28;20087;-68
2022/05/10 03:14:34;;;;;;;14.93;8.20;;;;;;;;;;5033476;28;20064;-68
2022/05/10 03:17:08;;;;;;;17.13;7.75;;;;;;;;;;5037577;28;20114;-68
2022/05/10 03:19:42;;;;;;;15.23;8.18;;;;;;;;;;5031927;28;20511;-68
2022/05/10 03:22:14;;;;;;;14.15;8.43;;;;;;;;;;5032959;28;20091;-68
2022/05/10 03:24:40;;;;;;;16.15;9.00;;;;;;;;;;5033291;28;20041;-68
2022/05/10 03:27:12;;;;;;;16.73;9.05;;;;;;;;;;5035264;28;20087;-68
2022/05/10 03:29:44;;;;;;;19.48;9.02;;;;;;;;;;5065039;28;20067;-68
2022/05/10 03:32:10;;;;;;;13.02;8.27;;;;;;;;;;5033368;28;20098;-68
2022/05/10 03:34:54;;;;;;;16.50;9.07;;;;;;;;;;5033090;28;20029;-68
2022/05/10 03:37:26;;;;;;;17.35;8.93;;;;;;;;;;5034684;28;20037;-68
2022/05/10 03:39:59;;;;;;;17.90;9.27;;;;;;;;;;5033167;28;20041;-68
2022/05/10 03:42:25;;;;;;;14.88;8.93;;;;;;;;;;5032960;28;20045;-68
2022/05/10 03:44:57;;;;;;;16.75;8.90;;;;;;;;;;5032841;28;20380;-68
2022/05/10 03:47:30;;;;;;;15.20;8.30;;;;;;;;;;5033642;28;20477;-68
2022/05/10 03:49:56;;;;;;;19.42;9.60;;;;;;;;;;5032718;28;20394;-68
2022/05/10 03:52:28;;;;;;;13.88;7.60;;;;;;;;;;5033888;28;20053;-68
2022/05/10 03:55:01;;;;;;;21.45;9.43;;;;;;;;;;5039203;28;20401;-68
2022/05/10 03:57:26;;;;;;;14.77;8.35;;;;;;;;;;5032709;28;20135;-68
2022/05/10 03:59:58;;;;;;;14.45;8.02;;;;;;;;;;5032888;28;20105;-68
2022/05/10 04:02:31;;;;;;;13.48;8.50;;;;;;;;;;5029020;28;20041;-68
2022/05/10 04:04:56;;;;;;;22.23;9.40;;;;;;;;;;5028799;28;20044;-68
2022/05/10 04:07:35;;;;;;;15.55;8.35;;;;;;;;;;5037884;28;20071;-68
2022/05/10 04:10:09;;;;;;;16.55;8.43;;;;;;;;;;5032911;28;20099;-67
2022/05/10 04:12:44;;;;;;;14.20;8.45;;;;;;;;;;5042185;28;20048;-67
2022/05/10 04:15:18;;;;;;;15.32;8.00;;;;;;;;;;5033775;28;20033;-68
2022/05/10 04:17:44;;;;;;;;;;;;;;;;;;5036883;28;20497;-68
2022/05/10 04:20:17;;;;;;;12.88;7.50;;;;;;;;;;5032466;28;19940;-68
2022/05/10 04:22:50;;;;;;;;;;;;;;;;;;5041163;28;20042;-68
2022/05/10 04:25:23;;;;;;;13.85;6.68;;;;;;;;;;5032517;28;19916;-68
2022/05/10 04:27:55;;;;;;;12.73;7.20;;;;;;;;;;5028717;28;20030;-68
2022/05/10 04:30:28;;;;;;;17.45;7.78;;;;;;;;;;5037967;28;20033;-68
2022/05/10 04:32:53;;;;;;;13.10;7.55;;;;;;;;;;5036418;28;20037;-68
2022/05/10 04:35:25;;;;;;;17.25;7.13;;;;;;;;;;5037343;28;20024;-68
2022/05/10 04:38:04;;;;;;;18.50;7.07;;;;;;;;;;5041741;28;20091;-68
2022/05/10 04:43:27;;;;;;;15.55;7.30;;;;;;;;;;5035552;28;20052;-68
2022/05/10 04:45:58;;;;;;;12.70;7.22;;;;;;;;;;5046315;28;20045;-68
2022/05/10 04:48:24;;;;;;;16.85;6.75;;;;;;;;;;5033554;28;20440;-68
2022/05/10 04:50:56;;;;;;;12.13;7.25;;;;;;;;;;5047122;28;20029;-68
2022/05/10 04:53:27;;;;;;;13.10;6.80;;;;;;;;;;5033696;28;20037;-68
2022/05/10 04:55:53;;;;;;;14.68;6.78;;;;;;;;;;5042346;28;20087;-68
2022/05/10 04:58:25;;;;;;;14.63;7.05;;;;;;;;;;5035669;28;20029;-68
2022/05/10 05:00:57;;;;;;;12.55;6.45;;;;;;;;;;5047706;28;20033;-68
2022/05/10 05:03:23;;;;;;;12.32;7.38;;;;;;;;;;5035991;28;20083;-68
2022/05/10 05:05:55;;;;;;;13.07;6.60;;;;;;;;;;5041356;28;20427;-68
2022/05/10 05:08:26;;;;;;;12.57;6.78;;;;;;;;;;5035612;28;20040;-68
2022/05/10 05:10:53;;;;;;;11.30;6.55;;;;;;;;;;5033256;28;20495;-68
2022/05/10 05:13:25;;;;;;;14.32;7.55;;;;;;;;;;5043679;28;20103;-68
2022/05/10 05:15:57;;;;;;;16.98;6.43;;;;;;;;;;5033668;28;20038;-68
2022/05/10 05:18:23;;;;;;;16.77;6.82;;;;;;;;;;5021761;28;20494;-68
2022/05/10 05:20:55;;;;;;;15.63;6.38;;;;;;;;;;5035784;28;20038;-68
2022/05/10 05:23:28;;;;;;;14.57;7.03;;;;;;;;;;5035651;28;20037;-68
2022/05/10 05:25:55;;;;;;;13.80;7.25;;;;;;;;;;5035935;28;20088;-68
2022/05/10 05:28:27;;;;;;;15.30;6.75;;;;;;;;;;5034214;28;20034;-68
2022/05/10 05:30:58;;;;;;;14.35;6.43;;;;;;;;;;5025856;28;20029;-68
2022/05/10 05:33:24;;;;;;;11.10;6.85;;;;;;;;;;5031595;28;20042;-68
2022/05/10 05:35:56;;;;;;;14.85;6.25;;;;;;;;;;5041514;28;20032;-68
2022/05/10 05:38:29;;;;;;;12.82;5.97;;;;;;;;;;5035304;28;20029;-68
2022/05/10 05:40:54;;;;;;;13.25;5.85;;;;;;;;;;5042514;28;20063;-68
2022/05/10 05:43:26;;;;;;;11.35;4.97;;;;;;;;;;5034845;28;20446;-68
2022/05/10 05:45:57;;;;;;;12.13;6.15;;;;;;;;;;5036447;28;20061;-68
2022/05/10 05:48:23;;;;;;;11.57;5.28;;;;;;;;;;5043340;28;20033;-68
2022/05/10 05:50:55;;;;;;;13.50;5.50;;;;;;;;;;5037676;28;20151;-68
2022/05/10 05:53:26;;;;;;;16.17;4.60;;;;;;;;;;5043353;28;20045;-68
2022/05/10 05:55:53;;;;;;;14.75;4.82;;;;;;;;;;5032843;28;20084;-68
2022/05/10 05:58:25;;;;;;;11.95;4.38;;;;;;;;;;5034682;28;20450;-68
2022/05/10 06:00:56;;;;;;;13.70;4.70;;;;;;;;;;5034074;28;20121;-68
2022/05/10 06:03:22;;;;;;;13.25;4.10;;;;;;;;;;5034455;28;20026;-68
2022/05/10 06:05:54;;;;;;;13.18;4.22;;;;;;;;;;5044613;28;20026;-68
2022/05/10 06:08:26;;;;;;;15.60;3.88;;;;;;;;;;5033330;28;20048;-68
2022/05/10 06:10:52;;;;;;;17.27;4.10;;;;;;;;;;5044113;28;20045;-68
2022/05/10 06:13:24;;;;;;;21.80;5.20;;;;;;;;;;5033663;28;20053;-68
2022/05/10 06:15:55;;;;;;;13.98;3.70;;;;;;;;;;5032974;28;20496;-68
2022/05/10 06:18:21;;;;;;;16.15;3.45;;;;;;;;;;5033282;28;20107;-68
2022/05/10 06:20:53;;;;;;;17.80;5.63;;;;;;;;;;5035748;28;20108;-68
2022/05/10 06:23:25;;;;;;;13.48;3.70;;;;;;;;;;5032617;28;20065;-68
2022/05/10 06:25:51;;;;;;;11.32;3.17;;;;;;;;;;5034602;28;20033;-68
2022/05/10 06:28:23;;;;;;;13.13;3.30;;;;;;;;;;5044546;28;20033;-68
2022/05/10 06:30:56;;;;;;;11.07;3.30;;;;;;;;;;5037360;28;20115;-68
2022/05/10 06:33:21;;;;;;;10.32;3.08;;;;;;;;;;5033823;28;20045;-68
2022/05/10 06:35:53;;;;;;;11.52;3.70;;;;;;;;;;5031267;28;20036;-68
2022/05/10 06:38:27;;;;;;;12.27;3.50;;;;;;;;;;5028274;28;20088;-68
2022/05/10 06:41:02;;;;;;;15.75;3.38;;;;;;;;;;5034092;28;20044;-68
2022/05/10 06:43:35;;;;;;;8.27;3.42;;;;;;;;;;5045323;28;20064;-68
2022/05/10 06:46:13;;;;;;;12.10;2.95;;;;;;;;;;5024176;28;20079;-68
2022/05/10 06:48:46;;;;;;;9.95;2.70;;;;;;;;;;5033697;28;20381;-68
2022/05/10 06:51:21;;;;;;;13.20;3.20;;;;;;;;;;5034133;28;20041;-68
2022/05/10 06:53:53;;;;;;;9.98;2.22;;;;;;;;;;5034780;28;20072;-68
2022/05/10 06:56:26;;;;;;;12.20;2.33;;;;;;;;;;5037510;28;20090;-68
2022/05/10 06:58:52;;;;;;;7.13;2.00;;;;;;;;;;5031271;28;20029;-68
2022/05/10 07:01:25;;;;;;;11.80;2.30;;;;;;;;;;5033256;28;20079;-68
2022/05/10 07:03:59;;;;;;;7.68;1.75;;;;;;;;;;5033346;28;20489;-68
2022/05/10 07:06:24;;;;;;;10.98;2.20;;;;;;;;;;5022348;28;20038;-68
2022/05/10 07:08:55;;;;;;;8.93;2.08;;;;;;;;;;5035844;28;20460;-68
2022/05/10 07:11:28;;;;;;;6.63;2.10;;;;;;;;;;5033261;28;20041;-68
2022/05/10 07:13:53;;;;;;;9.90;2.20;;;;;;;;;;5036733;28;20063;-68
2022/05/10 07:16:25;;;;;;;9.98;2.58;;;;;;;;;;5032830;28;20052;-68
2022/05/10 07:18:58;;;;;;;8.60;2.05;;;;;;;;;;5032054;28;20135;-68
2022/05/10 07:21:23;;;;;;;8.48;1.95;;;;;;;;;;5029846;28;20496;-68
2022/05/10 07:23:55;;;;;;;12.95;2.00;;;;;;;;;;5027196;28;20030;-68
2022/05/10 07:26:28;;;;;;;10.55;1.98;;;;;;;;;;5037374;28;20041;-68
2022/05/10 07:28:53;;;;;;;9.75;1.85;;;;;;;;;;5039146;28;20126;-68
2022/05/10 07:31:25;;;;;;;14.88;1.70;;;;;;;;;;5033128;28;20045;-68
2022/05/10 07:33:58;;;;;;;7.43;1.58;;;;;;;;;;5033159;28;20118;-68
2022/05/10 07:36:28;;;;;;;4.60;1.33;;;;;;;;;;5032986;28;20045;-68
2022/05/10 07:39:00;;;;;;;13.02;1.98;;;;;;;;;;5032945;28;20034;-68
2022/05/10 07:41:34;;;;;;;10.10;2.00;;;;;;;;;;5030037;28;20111;-68
2022/05/10 07:43:59;;;;;;;11.57;1.98;;;;;;;;;;5033448;28;20038;-68
2022/05/10 07:46:31;;;;;;;10.38;2.60;;;;;;;;;;5032614;28;20052;-68
2022/05/10 07:49:04;;;;;;;4.93;1.50;;;;;;;;;;5033087;28;20079;-68
2022/05/10 07:51:29;;;;;;;8.75;2.05;;;;;;;;;;5022410;28;20037;-68
2022/05/10 07:54:02;;;;;;;9.98;2.25;;;;;;;;;;5032549;28;20029;-68
2022/05/10 07:56:34;;;;;;;9.13;2.33;;;;;;;;;;5047360;28;20045;-68
2022/05/10 07:58:59;;;;;;;7.60;1.60;;;;;;;;;;5032296;28;20040;-68
2022/05/10 08:01:32;;;;;;;12.52;1.45;;;;;;;;;;5031940;28;20038;-68
2022/05/10 08:04:05;;;;;;;6.72;1.65;;;;;;;;;;5025277;28;20037;-68
2022/05/10 08:06:30;;;;;;;7.00;1.70;;;;;;;;;;5035621;28;20525;-69
2022/05/10 08:09:02;;;;;;;8.10;1.63;;;;;;;;;;5036194;28;20056;-68
2022/05/10 08:11:35;;;;;;;10.38;1.40;;;;;;;;;;5038433;28;20487;-68
2022/05/10 08:14:00;;;;;;;7.07;1.40;;;;;;;;;;5040401;28;20041;-68
2022/05/10 08:16:33;;;;;;;8.07;1.60;;;;;;;;;;5035763;28;20032;-68
2022/05/10 08:19:05;;;;;;;9.05;1.85;;;;;;;;;;5035381;28;20065;-68
2022/05/10 08:21:31;;;;;;;8.55;1.77;;;;;;;;;;5036525;28;20033;-68
2022/05/10 08:24:04;;;;;;;11.73;1.60;;;;;;;;;;5036090;28;20496;-68
2022/05/10 08:26:36;;;;;;;4.50;1.45;;;;;;;;;;5031804;28;20037;-68
2022/05/10 08:29:02;;;;;;;7.80;1.55;;;;;;;;;;5028014;28;20048;-68
2022/05/10 08:31:34;;;;;;;5.50;1.63;;;;;;;;;;5032458;28;20021;-68
2022/05/10 08:34:06;;;;;;;12.82;1.70;;;;;;;;;;5032007;28;20037;-68
2022/05/10 08:36:32;;;;;;;9.25;1.80;;;;;;;;;;5032598;28;20087;-68
2022/05/10 08:39:05;;;;;;;8.98;1.67;;;;;;;;;;5032901;28;20494;-68
2022/05/10 08:41:47;;;;;;;11.02;1.40;;;;;;;;;;5014379;28;20465;-68
2022/05/10 08:44:25;;;;;;;8.77;1.67;;;;;;;;;;5017631;28;20029;-68
2022/05/10 08:46:59;;;;;;;9.43;1.80;;;;;;;;;;5042908;28;20124;-69
2022/05/10 08:49:42;;;;;;;9.40;1.70;;;;;;;;;;5032200;28;20500;-69
2022/05/10 08:52:16;;;;;;;10.73;1.92;;;;;;;;;;5028208;28;20538;-68
2022/05/10 08:54:42;;;;;;;9.45;2.33;;;;;;;;;;5042253;28;20112;-69
2022/05/10 08:57:58;;;;;;;6.57;1.42;;;;;;;;;;5024762;28;20055;-68
2022/05/10 09:00:38;;;;;;;7.55;1.80;;;;;;;;;;5047587;28;20045;-68
2022/05/10 09:03:31;;;;;;;12.55;1.80;;;;;;;;;;5019870;28;20381;-68
2022/05/10 09:06:01;;;;;;;7.70;2.25;;;;;;;;;;5032002;28;20037;-68
2022/05/10 09:08:58;;;;;;;10.77;2.35;;;;;;;;;;5023797;28;20060;-68
2022/05/10 09:11:24;;;;;;;9.30;2.05;;;;;;;;;;5031317;28;20034;-68
2022/05/10 09:13:56;;;;;;;14.43;2.20;;;;;;;;;;5030611;28;20037;-69
2022/05/10 09:16:27;;;;;;;9.95;1.90;;;;;;;;;;5027497;28;20029;-68
2022/05/10 09:18:54;;;;;;;14.35;2.83;;;;;;;;;;5029631;28;20076;-68
2022/05/10 09:21:35;;;;;;;11.18;2.17;;;;;;;;;;5030666;28;20025;-68
2022/05/10 09:24:33;;;;;;;9.90;2.20;;;;;;;;;;5036634;28;20041;-68
2022/05/10 09:27:14;;;;;;;10.45;2.45;;;;;;;;;;5032568;28;20053;-69
2022/05/10 09:29:44;;;;;;;9.15;2.28;;;;;;;;;;5046215;28;20033;-69
2022/05/10 09:35:13;;;;;;;11.75;2.67;;;;;;;;;;5031594;28;20119;-69
2022/05/10 09:37:59;;;;;;;13.40;2.92;;;;;;;;;;5030750;28;20037;-69
2022/05/10 09:40:34;;;;;;;12.45;3.10;;;;;;;;;;5060108;28;20393;-69
2022/05/10 09:43:23;;;;;;;9.43;2.78;;;;;;;;;;5032177;28;20132;-69
2022/05/10 09:46:20;;;;;;;11.45;2.70;;;;;;;;;;5035901;28;20033;-69
2022/05/10 09:48:58;;;;;;;12.82;2.85;;;;;;;;;;5030526;28;20071;-69
2022/05/10 09:51:44;;;;;;;11.80;2.90;;;;;;;;;;5029821;28;20033;-69
2022/05/10 09:54:30;;;;;;;18.88;3.17;;;;;;;;;;5028495;28;20025;-69
2022/05/10 09:56:58;;;;;;;13.32;2.63;;;;;;;;;;5052395;28;20559;-69
2022/05/10 09:59:53;;;;;;;12.18;2.90;;;;;;;;;;5031214;28;20025;-68
2022/05/10 10:02:31;;;;;;;10.80;2.80;;;;;;;;;;5030065;28;20045;-69
2022/05/10 10:05:34;;;;;;;8.38;2.20;;;;;;;;;;5030119;28;20148;-69
2022/05/10 10:07:59;;;;;;;8.98;2.00;;;;;;;;;;5059436;28;20485;-69
2022/05/10 10:10:43;;;;;;;8.57;2.38;;;;;;;;;;5062022;28;20036;-69
2022/05/10 10:13:27;;;;;;;;;;;;;;;;;;5025901;28;20120;-69
2022/05/10 10:16:06;;;;;;;13.75;3.17;;;;;;;;;;5030086;28;19913;-68
2022/05/10 10:18:51;;;;;;;9.95;2.92;;;;;;;;;;5027762;28;20107;-69
2022/05/10 10:21:36;;;;;;;16.80;3.25;;;;;;;;;;5024422;28;20075;-69
2022/05/10 10:24:01;;;;;;;6.95;2.80;;;;;;;;;;5028103;28;20047;-69
2022/05/10 10:26:53;;;;;;;11.65;3.20;;;;;;;;;;5029194;28;20423;-70
2022/05/10 10:29:34;;;;;;;7.43;2.67;;;;;;;;;;5043984;28;20473;-69
2022/05/10 10:32:18;;;;;;;9.18;2.90;;;;;;;;;;5029422;28;20033;-69
2022/05/10 10:34:53;;;;;;;6.50;2.17;;;;;;;;;;5024407;28;20095;-69
2022/05/10 10:37:42;;;;;;;10.27;2.58;;;;;;;;;;5044152;28;20029;-69
2022/05/10 10:40:27;;;;;;;10.13;2.35;;;;;;;;;;5022341;28;20488;-68
2022/05/10 10:43:25;;;;;;;10.65;2.65;;;;;;;;;;5015902;28;20029;-69
2022/05/10 10:46:22;;;;;;;14.95;2.70;;;;;;;;;;5021689;28;20033;-69
2022/05/10 10:49:02;;;;;;;18.92;2.63;;;;;;;;;;5025286;28;20044;-68
2022/05/10 10:51:29;;;;;;;13.63;2.72;;;;;;;;;;5025602;28;20059;-68
2022/05/10 10:54:02;;;;;;;11.75;2.70;;;;;;;;;;5044928;28;20393;-68
2022/05/10 10:56:53;;;;;;;7.88;2.10;;;;;;;;;;5029037;28;20064;-69
2022/05/10 10:59:40;;;;;;;9.90;2.20;;;;;;;;;;5029951;28;20112;-68
2022/05/10 11:02:40;;;;;;;10.32;2.78;;;;;;;;;;5026517;28;20045;-68
2022/05/10 11:05:40;;;;;;;8.88;2.28;;;;;;;;;;5022349;28;20432;-69
2022/05/10 11:08:34;;;;;;;13.38;2.88;;;;;;;;;;5022053;28;20489;-68
2022/05/10 11:11:39;;;;;;;8.80;2.67;;;;;;;;;;5029023;28;20061;-69
2022/05/10 11:14:29;;;;;;;7.05;2.65;;;;;;;;;;5028369;28;20121;-69
2022/05/10 11:17:26;;;;;;;12.05;2.53;;;;;;;;;;5043377;28;20041;-68
2022/05/10 11:20:19;;;;;;;13.85;2.53;;;;;;;;;;5020096;28;20119;-68
2022/05/10 11:23:08;;;;;;;8.80;2.45;;;;;;;;;;5042963;28;20386;-68
2022/05/10 11:26:04;;;;;;;9.45;2.15;;;;;;;;;;5028937;28;20034;-68
2022/05/10 11:28:58;;;;;;;14.23;2.55;;;;;;;;;;5042889;28;20080;-69
2022/05/10 11:31:42;;;;;;;;;;;;;;;;;;5024942;28;20540;-68
2022/05/10 11:34:26;;;;;;;7.72;2.17;;;;;;;;;;5041236;28;19978;-68
2022/05/10 11:37:01;;;;;;;9.10;2.38;;;;;;;;;;5028545;28;20072;-69
2022/05/10 11:40:10;;;;;;;6.82;2.00;;;;;;;;;;5028449;28;20046;-68
2022/05/10 11:42:59;;;;;;;8.63;2.28;;;;;;;;;;5028857;28;20940;-68
2022/05/10 11:45:48;;;;;;;9.48;2.42;;;;;;;;;;5038131;28;20433;-68
2022/05/10 11:48:23;;;;;;;11.40;1.92;;;;;;;;;;5029390;28;20119;-68
2022/05/10 11:54:11;;;;;;;18.08;2.38;;;;;;;;;;5017772;28;20056;-69
2022/05/10 11:56:44;;;;;;;11.40;2.30;;;;;;;;;;5028840;28;20087;-68
2022/05/10 11:59:27;;;;;;;13.15;2.45;;;;;;;;;;5043981;28;20042;-68
2022/05/10 12:02:00;;;;;;;7.10;1.70;;;;;;;;;;5028415;28;20128;-69
2022/05/10 12:04:35;;;;;;;8.25;1.70;;;;;;;;;;5024586;28;20041;-68
2022/05/10 12:07:19;;;;;;;12.45;2.03;;;;;;;;;;5024291;28;20052;-69
2022/05/10 12:10:36;;;;;;;9.25;1.83;;;;;;;;;;5023622;28;20041;-68
2022/05/10 12:21:19;;;;;;;9.23;1.77;;;;;;;;;;5022914;28;20157;-68
2022/05/10 12:23:04;;;;;;;7.93;1.50;;;;;;;;;;5016421;28;20133;-69
2022/05/10 12:25:52;;;;;;;5.85;1.77;;;;;;;;;;5020400;28;20083;-69
2022/05/10 12:28:44;;;;;;;8.90;1.58;;;;;;;;;;5026413;28;20033;-69
2022/05/10 12:31:36;;;;;;;5.80;1.77;;;;;;;;;;5029308;28;20049;-69
2022/05/10 12:34:12;;;;;;;11.38;1.90;;;;;;;;;;5023768;28;20033;-69
2022/05/10 12:36:44;;;;;;;9.00;1.77;;;;;;;;;;5056302;28;20068;-68
2022/05/10 12:39:30;;;;;;;14.50;1.80;;;;;;;;;;5028978;28;20188;-68
2022/05/10 12:42:17;;;;;;;8.52;1.77;;;;;;;;;;5036685;28;20369;-68
2022/05/10 12:45:05;;;;;;;7.80;1.50;;;;;;;;;;5047070;28;20033;-69
2022/05/10 12:48:15;;;;;;;6.22;1.42;;;;;;;;;;5028343;28;20064;-69
2022/05/10 12:50:55;;;;;;;5.68;1.50;;;;;;;;;;5033504;28;20049;-68
2022/05/10 12:53:34;;;;;;;7.18;1.85;;;;;;;;;;5045150;28;20417;-69
2022/05/10 12:56:13;;;;;;;6.85;1.50;;;;;;;;;;5031854;28;20068;-68
2022/05/10 12:58:49;;;;;;;7.30;2.28;;;;;;;;;;5027049;28;20447;-68
2022/05/10 13:01:23;;;;;;;10.68;2.10;;;;;;;;;;5047076;28;20063;-68
2022/05/10 13:04:17;;;;;;;9.15;1.60;;;;;;;;;;5056993;28;20048;-68
2022/05/10 13:07:08;;;;;;;;;;;;;;;;;;5027031;28;20051;-68
2022/05/10 13:09:55;;;;;;;8.80;1.98;;;;;;;;;;5030876;28;19913;-68
2022/05/10 13:12:44;;;;;;;4.93;1.33;;;;;;;;;;5038640;28;20063;-68
2022/05/10 13:15:21;;;;;;;7.22;1.30;;;;;;;;;;5048590;28;20037;-68
2022/05/10 13:17:57;;;;;;;12.30;1.70;;;;;;;;;;5033417;28;20484;-68
2022/05/10 13:20:30;;;;;;;8.50;1.73;;;;;;;;;;5053983;28;20049;-68
2022/05/10 13:23:08;;;;;;;7.53;1.45;;;;;;;;;;5033792;28;20041;-68
2022/05/10 13:25:41;;;;;;;8.02;1.23;;;;;;;;;;5027510;28;20470;-68
2022/05/10 13:28:26;;;;;;;;;;;;;;;;;;5031193;28;20890;-68
2022/05/10 13:30:59;;;;;;;6.32;1.48;;;;;;;;;;5032509;28;19960;-68
2022/05/10 13:33:24;;;;;;;;;;;;;;;;;;5036208;28;20087;-68
2022/05/10 13:35:59;;;;;;;14.40;1.80;;;;;;;;;;5031900;28;20277;-69
2022/05/10 13:38:35;;;;;;;10.02;2.10;;;;;;;;;;5031213;28;20044;-68
2022/05/10 13:41:12;;;;;;;6.45;1.67;;;;;;;;;;5031984;28;20034;-68
2022/05/10 13:43:50;;;;;;;7.50;1.40;;;;;;;;;;5028599;28;20507;-68
2022/05/10 13:46:32;;;;;;;8.60;1.27;;;;;;;;;;5032314;28;20064;-68
2022/05/10 13:49:12;;;;;;;7.60;1.60;;;;;;;;;;5058851;28;20124;-68
2022/05/10 13:51:50;;;;;;;6.13;1.83;;;;;;;;;;5022602;28;20042;-68
2022/05/10 13:54:31;;;;;;;9.00;1.63;;;;;;;;;;5027943;28;20040;-69
2022/05/10 13:57:28;;;;;;;9.00;1.50;;;;;;;;;;5027781;28;20087;-68
2022/05/10 14:00:12;;;;;;;8.15;1.50;;;;;;;;;;5026100;28;20495;-69
2022/05/10 14:02:45;;;;;;;7.15;1.40;;;;;;;;;;5024194;28;20409;-68
2022/05/10 14:05:19;;;;;;;7.57;1.48;;;;;;;;;;5020042;28;20030;-68
2022/05/10 14:07:53;;;;;;;5.78;1.48;;;;;;;;;;5030387;28;20072;-68
2022/05/10 14:10:32;;;;;;;9.85;1.92;;;;;;;;;;5034614;28;20045;-68
2022/05/10 14:13:08;;;;;;;10.25;1.35;;;;;;;;;;5032126;28;20499;-68
2022/05/10 14:15:46;;;;;;;6.82;1.85;;;;;;;;;;5028750;28;20065;-68
2022/05/10 14:18:34;;;;;;;7.95;1.90;;;;;;;;;;5032616;28;20481;-68
2022/05/10 14:21:13;;;;;;;5.30;1.52;;;;;;;;;;5035048;28;20049;-68
2022/05/10 14:23:46;;;;;;;11.45;1.80;;;;;;;;;;5030609;28;20439;-69
2022/05/10 14:26:31;;;;;;;10.30;1.63;;;;;;;;;;5032690;28;20052;-69
2022/05/10 14:29:08;;;;;;;10.45;1.58;;;;;;;;;;5022937;28;20052;-68
2022/05/10 14:31:41;;;;;;;7.70;1.88;;;;;;;;;;5033165;28;20035;-69
2022/05/10 14:34:16;;;;;;;8.90;1.50;;;;;;;;;;5030898;28;20239;-69
2022/05/10 14:36:51;;;;;;;6.97;1.40;;;;;;;;;;5026359;28;20037;-69
2022/05/10 14:39:27;;;;;;;10.55;1.70;;;;;;;;;;5033706;28;20048;-69
2022/05/10 14:41:59;;;;;;;6.38;1.48;;;;;;;;;;5040407;28;20123;-69
2022/05/10 14:44:46;;;;;;;14.02;1.83;;;;;;;;;;5032567;28;20099;-69
2022/05/10 14:47:23;;;;;;;8.55;1.65;;;;;;;;;;5023752;28;20045;-69
2022/05/10 14:49:56;;;;;;;11.85;1.90;;;;;;;;;;5025317;28;20714;-68
2022/05/10 14:52:34;;;;;;;11.05;1.65;;;;;;;;;;5023810;28;20037;-70
2022/05/10 14:55:08;;;;;;;7.13;1.33;;;;;;;;;;5029175;28;20100;-68
2022/05/10 14:57:47;;;;;;;;;;;;;;;;;;5024689;28;20045;-68
2022/05/10 15:03:15;;;;;;;6.13;1.30;;;;;;;;;;5024868;28;20050;-68
2022/05/10 15:05:47;;;;;;;11.40;1.38;;;;;;;;;;5030518;28;20034;-68
2022/05/10 15:08:20;;;;;;;9.82;1.60;;;;;;;;;;5029036;28;20036;-69
2022/05/10 15:10:46;;;;;;;;;;;;;;;;;;5022998;28;20033;-68
2022/05/10 15:13:19;;;;;;;8.00;1.17;;;;;;;;;;5024630;28;19913;-68
2022/05/10 15:15:54;;;;;;;5.80;1.38;;;;;;;;;;5034747;28;20397;-68
2022/05/10 15:21:44;;;;;;;7.82;1.50;;;;;;;;;;5038347;28;20480;-68
2022/05/10 15:24:17;;;;;;;5.38;1.05;;;;;;;;;;5022612;28;20042;-68
2022/05/10 15:26:51;;;;;;;3.80;1.00;;;;;;;;;;5030385;28;20123;-68
2022/05/10 15:29:29;;;;;;;6.60;1.50;;;;;;;;;;5057875;28;20393;-68
2022/05/10 15:32:02;;;;;;;5.15;1.20;;;;;;;;;;5035219;28;20122;-68
2022/05/10 15:34:43;;;;;;;12.02;1.50;;;;;;;;;;5028911;28;20034;-68
2022/05/10 15:37:25;;;;;;;6.75;1.38;;;;;;;;;;5029270;28;20030;-68
2022/05/10 15:39:51;;;;;;;10.52;1.67;;;;;;;;;;5029350;28;20140;-68
2022/05/10 15:42:33;;;;;;;8.90;1.27;;;;;;;;;;5017420;28;20482;-68
2022/05/10 15:44:59;;;;;;;8.20;1.80;;;;;;;;;;5027440;28;20416;-68
2022/05/10 15:47:40;;;;;;;10.43;1.90;;;;;;;;;;5020452;28;20405;-68
2022/05/10 15:50:08;;;;;;;5.68;1.30;;;;;;;;;;5043427;28;20065;-68
2022/05/10 15:52:47;;;;;;;6.15;1.40;;;;;;;;;;5031657;28;20589;-68
2022/05/10 15:55:12;;;;;;;16.63;2.10;;;;;;;;;;5039506;28;20028;-68
2022/05/10 15:57:38;;;;;;;8.13;1.30;;;;;;;;;;5028814;28;20029;-68